METAR Data
IDs: Format: Raw Decoded Include TAF

Data at: 1620 UTC 19 Sep 2018

KWMC 191556Z AUTO 00000KT 10SM CLR 12/M12 A2997 RMK AO2 SLP122 T01221117
KWMC 191456Z AUTO 00000KT 10SM CLR 06/M12 A2997 RMK AO2 SLP127 T00611117 53010
KWMC 191356Z AUTO 16005KT 10SM CLR 00/M13 A2995 RMK AO2 SLP123 T00001133
KWMC 191256Z AUTO 14005KT 10SM CLR M01/M13 A2994 RMK AO2 SLP116 T10061128
KWMC 191156Z AUTO 00000KT 10SM CLR 01/M13 A2993 RMK AO2 SLP109 T00111133 10072 21006 55003
KWMC 191056Z AUTO 00000KT 10SM CLR 01/M14 A2993 RMK AO2 SLP107 T00111144
KWMC 190956Z AUTO VRB03KT 10SM CLR 02/M14 A2993 RMK AO2 SLP107 T00171139
KWMC 190856Z AUTO 11003KT 10SM CLR 06/M11 A2994 RMK AO2 SLP106 T00561111 53005
KWMC 190756Z AUTO VRB03KT 10SM CLR 06/M13 A2994 RMK AO2 SLP104 T00611128 402780000
KWMC 190656Z AUTO 13007KT 10SM CLR 07/M13 A2992 RMK AO2 SLP100 T00721128
KWMC 190556Z AUTO 00000KT 10SM CLR 07/M14 A2993 RMK AO2 SLP102 T00721144 10267 20061 51001
KWMC 190456Z AUTO 00000KT 10SM CLR 10/M13 A2992 RMK AO2 SLP104 T01001133
KWMC 190356Z AUTO VRB03KT 10SM CLR 15/M13 A2993 RMK AO2 SLP103 T01501128
KWMC 190256Z AUTO 00000KT 10SM CLR 17/M13 A2992 RMK AO2 SLP110 T01721128 53002
KWMC 190156Z AUTO 30004KT 10SM CLR 21/M13 A2991 RMK AO2 SLP112 T02061128
KWMC 190056Z AUTO 28010KT 10SM CLR 25/M13 A2991 RMK AO2 SLP104 T02501133
KWMC 182356Z AUTO 29011G18KT 10SM CLR 27/M12 A2991 RMK AO2 SLP101 T02671122 10278 20233 56013
KWMC 182256Z AUTO 26008G14KT 10SM CLR 27/M11 A2992 RMK AO2 SLP103 T02721111
KWMC 182156Z AUTO 24009KT 10SM CLR 28/M11 A2993 RMK AO2 SLP105 T02781106
KWMC 182056Z AUTO 23011G19KT 10SM CLR 27/M10 A2996 RMK AO2 SLP111 T02671100 56015
KWMC 181956Z AUTO 24014G19KT 10SM CLR 27/M10 A2997 RMK AO2 SLP116 T02671100
KWMC 181856Z AUTO VRB04KT 10SM CLR 25/M11 A2999 RMK AO2 SLP123 T02501111
KWMC 181756Z AUTO 29007KT 240V020 10SM CLR 23/M12 A3000 RMK AO2 SLP127 T02331122 10233 20000 58003
KWMC 181656Z AUTO 00000KT 10SM CLR 20/M08 A3002 RMK AO2 SLP131 T02001083
KWMC 181556Z AUTO 00000KT 10SM CLR 17/M09 A3001 RMK AO2 SLP129 T01671089
KWMC 181456Z AUTO 13005KT 10SM CLR 07/M10 A3002 RMK AO2 SLP144 T00721100 53010
KWMC 181356Z AUTO 16007KT 10SM CLR 01/M12 A3000 RMK AO2 SLP142 T00061122
KWMC 181256Z AUTO 15005KT 10SM CLR 01/M12 A2999 RMK AO2 SLP129 T00061117
KWMC 181156Z AUTO 13004KT 10SM CLR 02/M12 A2998 RMK AO2 SLP123 T00221117 10111 20000 53002
KWMC 181056Z AUTO 18007KT 10SM CLR 02/M13 A2998 RMK AO2 SLP121 T00221133
KWMC 180956Z AUTO 00000KT 10SM CLR 03/M13 A2998 RMK AO2 SLP120 T00331128
KWMC 180856Z AUTO 17008KT 10SM CLR 05/M11 A2998 RMK AO2 SLP119 T00501106 53005
KWMC 180756Z AUTO 13007KT 10SM CLR 06/M12 A2997 RMK AO2 SLP117 T00561122 402891017
KWMC 180656Z AUTO 17007KT 10SM CLR 07/M12 A2996 RMK AO2 SLP113 T00721122
KWMC 180556Z AUTO 01004KT 10SM CLR 10/M12 A2996 RMK AO2 SLP113 T01001117 10283 20089 50006
KWMC 180456Z AUTO 09003KT 10SM CLR 13/M09 A2997 RMK AO2 SLP118 T01281094